sensor_id;sensor_type;location;lat;lon;timestamp;temperature;humidity
23497;DHT22;11925;48.122;11.560;2023-09-30T00:02:01;17.40;99.90
23497;DHT22;11925;48.122;11.560;2023-09-30T00:04:30;17.40;99.90
23497;DHT22;11925;48.122;11.560;2023-09-30T00:06:58;17.40;99.90
23497;DHT22;11925;48.122;11.560;2023-09-30T00:09:28;17.40;99.90
23497;DHT22;11925;48.122;11.560;2023-09-30T00:11:57;17.40;99.90
23497;DHT22;11925;48.122;11.560;2023-09-30T00:14:26;17.40;99.90
23497;DHT22;11925;48.122;11.560;2023-09-30T00:16:56;17.40;99.90
23497;DHT22;11925;48.122;11.560;2023-09-30T00:19:25;17.40;99.90
23497;DHT22;11925;48.122;11.560;2023-09-30T00:21:54;17.40;99.90
23497;DHT22;11925;48.122;11.560;2023-09-30T00:24:22;17.40;99.90
23497;DHT22;11925;48.122;11.560;2023-09-30T00:26:52;17.40;99.90
23497;DHT22;11925;48.122;11.560;2023-09-30T00:29:20;17.40;99.90
23497;DHT22;11925;48.122;11.560;2023-09-30T00:31:49;17.40;99.90
23497;DHT22;11925;48.122;11.560;2023-09-30T00:34:17;17.40;99.90
23497;DHT22;11925;48.122;11.560;2023-09-30T00:36:46;17.40;99.90
23497;DHT22;11925;48.122;11.560;2023-09-30T00:39:14;17.40;99.90
23497;DHT22;11925;48.122;11.560;2023-09-30T00:41:43;17.30;99.90
23497;DHT22;11925;48.122;11.560;2023-09-30T00:44:12;17.30;99.90
23497;DHT22;11925;48.122;11.560;2023-09-30T00:46:41;17.30;99.90
23497;DHT22;11925;48.122;11.560;2023-09-30T00:49:10;17.30;99.90
23497;DHT22;11925;48.122;11.560;2023-09-30T00:51:42;17.30;99.90
23497;DHT22;11925;48.122;11.560;2023-09-30T00:54:12;17.30;99.90
23497;DHT22;11925;48.122;11.560;2023-09-30T00:56:44;17.30;99.90
23497;DHT22;11925;48.122;11.560;2023-09-30T00:59:15;17.30;99.90
23497;DHT22;11925;48.122;11.560;2023-09-30T01:01:45;17.30;99.90
23497;DHT22;11925;48.122;11.560;2023-09-30T01:04:14;17.30;99.90
23497;DHT22;11925;48.122;11.560;2023-09-30T01:06:43;17.30;99.90
23497;DHT22;11925;48.122;11.560;2023-09-30T01:09:11;17.20;99.90
23497;DHT22;11925;48.122;11.560;2023-09-30T01:11:40;17.20;99.90
23497;DHT22;11925;48.122;11.560;2023-09-30T01:14:29;17.20;99.90
23497;DHT22;11925;48.122;11.560;2023-09-30T01:16:58;17.20;99.90
23497;DHT22;11925;48.122;11.560;2023-09-30T01:19:27;17.20;99.90
23497;DHT22;11925;48.122;11.560;2023-09-30T01:21:57;17.20;99.90
23497;DHT22;11925;48.122;11.560;2023-09-30T01:24:28;17.30;99.90
23497;DHT22;11925;48.122;11.560;2023-09-30T01:26:57;17.20;99.90
23497;DHT22;11925;48.122;11.560;2023-09-30T01:29:25;17.40;99.90
23497;DHT22;11925;48.122;11.560;2023-09-30T01:31:55;17.50;99.90
23497;DHT22;11925;48.122;11.560;2023-09-30T01:34:24;17.50;99.90
23497;DHT22;11925;48.122;11.560;2023-09-30T01:36:52;17.50;99.90
23497;DHT22;11925;48.122;11.560;2023-09-30T01:39:22;17.50;99.90
23497;DHT22;11925;48.122;11.560;2023-09-30T01:41:52;17.50;99.90
23497;DHT22;11925;48.122;11.560;2023-09-30T01:44:21;17.50;99.90
23497;DHT22;11925;48.122;11.560;2023-09-30T01:46:49;17.60;99.90
23497;DHT22;11925;48.122;11.560;2023-09-30T01:49:17;17.60;99.90
23497;DHT22;11925;48.122;11.560;2023-09-30T01:51:46;17.60;99.90
23497;DHT22;11925;48.122;11.560;2023-09-30T01:54:14;17.60;99.90
23497;DHT22;11925;48.122;11.560;2023-09-30T01:56:44;17.60;99.90
23497;DHT22;11925;48.122;11.560;2023-09-30T01:59:12;17.60;99.90
23497;DHT22;11925;48.122;11.560;2023-09-30T02:01:41;17.60;99.90
23497;DHT22;11925;48.122;11.560;2023-09-30T02:04:09;17.50;99.90
23497;DHT22;11925;48.122;11.560;2023-09-30T02:06:38;17.50;99.90
23497;DHT22;11925;48.122;11.560;2023-09-30T02:09:07;17.40;99.90
23497;DHT22;11925;48.122;11.560;2023-09-30T02:11:36;17.40;99.90
23497;DHT22;11925;48.122;11.560;2023-09-30T02:14:06;17.40;99.90
23497;DHT22;11925;48.122;11.560;2023-09-30T02:16:34;17.30;99.90
23497;DHT22;11925;48.122;11.560;2023-09-30T02:19:03;17.30;99.90
23497;DHT22;11925;48.122;11.560;2023-09-30T02:21:31;17.30;99.90
23497;DHT22;11925;48.122;11.560;2023-09-30T02:24:00;17.30;99.90
23497;DHT22;11925;48.122;11.560;2023-09-30T02:26:29;17.30;99.90
23497;DHT22;11925;48.122;11.560;2023-09-30T02:28:58;17.30;99.90
23497;DHT22;11925;48.122;11.560;2023-09-30T02:31:28;17.30;99.90
23497;DHT22;11925;48.122;11.560;2023-09-30T02:33:56;17.30;99.90
23497;DHT22;11925;48.122;11.560;2023-09-30T02:36:25;17.20;99.90
23497;DHT22;11925;48.122;11.560;2023-09-30T02:38:54;17.20;99.90
23497;DHT22;11925;48.122;11.560;2023-09-30T02:41:22;17.30;99.90
23497;DHT22;11925;48.122;11.560;2023-09-30T02:43:51;17.30;99.90
23497;DHT22;11925;48.122;11.560;2023-09-30T02:46:19;17.30;99.90
23497;DHT22;11925;48.122;11.560;2023-09-30T02:48:49;17.20;99.90
23497;DHT22;11925;48.122;11.560;2023-09-30T02:51:19;17.20;99.90
23497;DHT22;11925;48.122;11.560;2023-09-30T02:53:47;17.20;99.90
23497;DHT22;11925;48.122;11.560;2023-09-30T02:56:16;17.20;99.90
23497;DHT22;11925;48.122;11.560;2023-09-30T02:58:46;17.20;99.90
23497;DHT22;11925;48.122;11.560;2023-09-30T03:01:15;17.20;99.90
23497;DHT22;11925;48.122;11.560;2023-09-30T03:03:49;17.20;99.90
23497;DHT22;11925;48.122;11.560;2023-09-30T03:06:18;17.20;99.90
23497;DHT22;11925;48.122;11.560;2023-09-30T03:08:46;17.20;99.90
23497;DHT22;11925;48.122;11.560;2023-09-30T03:11:15;17.20;99.90
23497;DHT22;11925;48.122;11.560;2023-09-30T03:13:43;17.20;99.90
23497;DHT22;11925;48.122;11.560;2023-09-30T03:16:12;17.20;99.90
23497;DHT22;11925;48.122;11.560;2023-09-30T03:18:40;17.20;99.90
23497;DHT22;11925;48.122;11.560;2023-09-30T03:21:14;17.20;99.90
23497;DHT22;11925;48.122;11.560;2023-09-30T03:23:43;17.20;99.90
23497;DHT22;11925;48.122;11.560;2023-09-30T03:26:12;17.20;99.90
23497;DHT22;11925;48.122;11.560;2023-09-30T03:28:40;17.20;99.90
23497;DHT22;11925;48.122;11.560;2023-09-30T03:31:09;17.20;99.90
23497;DHT22;11925;48.122;11.560;2023-09-30T03:33:38;17.10;99.90
23497;DHT22;11925;48.122;11.560;2023-09-30T03:36:08;17.10;99.90
23497;DHT22;11925;48.122;11.560;2023-09-30T03:38:39;17.10;99.90
23497;DHT22;11925;48.122;11.560;2023-09-30T03:41:08;17.10;99.90
23497;DHT22;11925;48.122;11.560;2023-09-30T03:43:40;17.10;99.90
23497;DHT22;11925;48.122;11.560;2023-09-30T03:46:08;17.10;99.90
23497;DHT22;11925;48.122;11.560;2023-09-30T03:48:39;17.10;99.90
23497;DHT22;11925;48.122;11.560;2023-09-30T03:51:11;17.10;99.90
23497;DHT22;11925;48.122;11.560;2023-09-30T03:53:43;17.10;99.90
23497;DHT22;11925;48.122;11.560;2023-09-30T03:56:12;17.10;99.90
23497;DHT22;11925;48.122;11.560;2023-09-30T03:58:41;17.10;99.90
23497;DHT22;11925;48.122;11.560;2023-09-30T04:01:11;17.00;99.90
23497;DHT22;11925;48.122;11.560;2023-09-30T04:03:40;17.10;99.90
23497;DHT22;11925;48.122;11.560;2023-09-30T04:06:11;17.10;99.90
23497;DHT22;11925;48.122;11.560;2023-09-30T04:08:39;17.00;99.90
23497;DHT22;11925;48.122;11.560;2023-09-30T04:11:12;17.00;99.90
23497;DHT22;11925;48.122;11.560;2023-09-30T04:13:45;17.00;99.90
23497;DHT22;11925;48.122;11.560;2023-09-30T04:16:13;17.00;99.90
23497;DHT22;11925;48.122;11.560;2023-09-30T04:18:42;17.00;99.90
23497;DHT22;11925;48.122;11.560;2023-09-30T04:21:11;17.00;99.90
23497;DHT22;11925;48.122;11.560;2023-09-30T04:23:39;17.00;99.90
23497;DHT22;11925;48.122;11.560;2023-09-30T04:26:08;17.00;99.90
23497;DHT22;11925;48.122;11.560;2023-09-30T04:28:38;17.10;99.90
23497;DHT22;11925;48.122;11.560;2023-09-30T04:31:06;17.00;99.90
23497;DHT22;11925;48.122;11.560;2023-09-30T04:33:35;17.00;99.90
23497;DHT22;11925;48.122;11.560;2023-09-30T04:36:05;17.00;99.90
23497;DHT22;11925;48.122;11.560;2023-09-30T04:38:35;17.00;99.90
23497;DHT22;11925;48.122;11.560;2023-09-30T04:41:04;17.00;99.90
23497;DHT22;11925;48.122;11.560;2023-09-30T04:43:34;17.00;99.90
23497;DHT22;11925;48.122;11.560;2023-09-30T04:46:06;17.10;99.90
23497;DHT22;11925;48.122;11.560;2023-09-30T04:48:35;17.10;99.90
23497;DHT22;11925;48.122;11.560;2023-09-30T04:51:06;17.10;99.90
23497;DHT22;11925;48.122;11.560;2023-09-30T04:53:36;17.10;99.90
23497;DHT22;11925;48.122;11.560;2023-09-30T04:56:05;17.10;99.90
23497;DHT22;11925;48.122;11.560;2023-09-30T04:58:34;17.10;99.90
23497;DHT22;11925;48.122;11.560;2023-09-30T05:01:02;17.10;99.90
23497;DHT22;11925;48.122;11.560;2023-09-30T05:03:32;17.10;99.90
23497;DHT22;11925;48.122;11.560;2023-09-30T05:06:01;17.00;99.90
23497;DHT22;11925;48.122;11.560;2023-09-30T05:08:30;17.00;99.90
23497;DHT22;11925;48.122;11.560;2023-09-30T05:10:58;17.00;99.90
23497;DHT22;11925;48.122;11.560;2023-09-30T05:13:26;17.00;99.90
23497;DHT22;11925;48.122;11.560;2023-09-30T05:15:55;16.90;99.90
23497;DHT22;11925;48.122;11.560;2023-09-30T05:18:23;16.90;99.90
23497;DHT22;11925;48.122;11.560;2023-09-30T05:20:53;16.90;99.90
23497;DHT22;11925;48.122;11.560;2023-09-30T05:23:22;16.90;99.90
23497;DHT22;11925;48.122;11.560;2023-09-30T05:25:51;16.90;99.90
23497;DHT22;11925;48.122;11.560;2023-09-30T05:28:20;16.90;99.90
23497;DHT22;11925;48.122;11.560;2023-09-30T05:30:49;16.90;99.90
23497;DHT22;11925;48.122;11.560;2023-09-30T05:33:17;16.90;99.90
23497;DHT22;11925;48.122;11.560;2023-09-30T05:35:46;16.90;99.90
23497;DHT22;11925;48.122;11.560;2023-09-30T05:38:16;16.90;99.90
23497;DHT22;11925;48.122;11.560;2023-09-30T05:40:48;16.90;99.90
23497;DHT22;11925;48.122;11.560;2023-09-30T05:43:16;16.90;99.90
23497;DHT22;11925;48.122;11.560;2023-09-30T05:45:45;16.90;99.90
23497;DHT22;11925;48.122;11.560;2023-09-30T05:48:17;16.90;99.90
23497;DHT22;11925;48.122;11.560;2023-09-30T05:50:46;16.90;99.90
23497;DHT22;11925;48.122;11.560;2023-09-30T05:53:15;16.90;99.90
23497;DHT22;11925;48.122;11.560;2023-09-30T05:55:44;16.90;99.90
23497;DHT22;11925;48.122;11.560;2023-09-30T05:58:14;16.90;99.90
23497;DHT22;11925;48.122;11.560;2023-09-30T06:00:43;16.90;99.90
23497;DHT22;11925;48.122;11.560;2023-09-30T06:03:11;16.90;99.90
23497;DHT22;11925;48.122;11.560;2023-09-30T06:05:40;16.90;99.90
23497;DHT22;11925;48.122;11.560;2023-09-30T06:08:10;16.90;99.90
23497;DHT22;11925;48.122;11.560;2023-09-30T06:10:42;16.90;99.90
23497;DHT22;11925;48.122;11.560;2023-09-30T06:13:12;17.00;99.90
23497;DHT22;11925;48.122;11.560;2023-09-30T06:15:42;16.90;99.90
23497;DHT22;11925;48.122;11.560;2023-09-30T06:18:14;17.00;99.90
23497;DHT22;11925;48.122;11.560;2023-09-30T06:20:42;16.90;99.90
23497;DHT22;11925;48.122;11.560;2023-09-30T06:23:11;17.00;99.90
23497;DHT22;11925;48.122;11.560;2023-09-30T06:25:39;16.90;99.90
23497;DHT22;11925;48.122;11.560;2023-09-30T06:28:09;17.00;99.90
23497;DHT22;11925;48.122;11.560;2023-09-30T06:30:39;17.00;99.90
23497;DHT22;11925;48.122;11.560;2023-09-30T06:33:10;16.90;99.90
23497;DHT22;11925;48.122;11.560;2023-09-30T06:35:41;16.90;99.90
23497;DHT22;11925;48.122;11.560;2023-09-30T06:38:17;16.90;99.90
23497;DHT22;11925;48.122;11.560;2023-09-30T06:40:46;16.90;99.90
23497;DHT22;11925;48.122;11.560;2023-09-30T06:43:16;16.80;99.90
23497;DHT22;11925;48.122;11.560;2023-09-30T06:45:45;16.80;99.90
23497;DHT22;11925;48.122;11.560;2023-09-30T06:48:14;16.80;99.90
23497;DHT22;11925;48.122;11.560;2023-09-30T06:50:47;16.80;99.90
23497;DHT22;11925;48.122;11.560;2023-09-30T06:53:16;16.80;99.90
23497;DHT22;11925;48.122;11.560;2023-09-30T06:55:45;16.90;99.90
23497;DHT22;11925;48.122;11.560;2023-09-30T06:58:15;16.80;99.90
23497;DHT22;11925;48.122;11.560;2023-09-30T07:00:49;16.80;99.90
23497;DHT22;11925;48.122;11.560;2023-09-30T07:03:18;16.80;99.90
23497;DHT22;11925;48.122;11.560;2023-09-30T07:05:54;16.80;99.90
23497;DHT22;11925;48.122;11.560;2023-09-30T07:08:23;16.80;99.90
23497;DHT22;11925;48.122;11.560;2023-09-30T07:10:52;16.80;99.90
23497;DHT22;11925;48.122;11.560;2023-09-30T07:13:22;16.80;99.90
23497;DHT22;11925;48.122;11.560;2023-09-30T07:15:50;16.80;99.90
23497;DHT22;11925;48.122;11.560;2023-09-30T07:18:19;16.80;99.90
23497;DHT22;11925;48.122;11.560;2023-09-30T07:20:48;16.80;99.90
23497;DHT22;11925;48.122;11.560;2023-09-30T07:23:16;16.80;99.90
23497;DHT22;11925;48.122;11.560;2023-09-30T07:25:46;16.80;99.90
23497;DHT22;11925;48.122;11.560;2023-09-30T07:28:15;16.80;99.90
23497;DHT22;11925;48.122;11.560;2023-09-30T07:30:45;16.90;99.90
23497;DHT22;11925;48.122;11.560;2023-09-30T07:33:14;16.90;99.90
23497;DHT22;11925;48.122;11.560;2023-09-30T07:35:42;16.90;99.90
23497;DHT22;11925;48.122;11.560;2023-09-30T07:38:11;16.90;99.90
23497;DHT22;11925;48.122;11.560;2023-09-30T07:40:39;16.80;99.90
23497;DHT22;11925;48.122;11.560;2023-09-30T07:43:08;16.90;99.90
23497;DHT22;11925;48.122;11.560;2023-09-30T07:45:37;16.90;99.90
23497;DHT22;11925;48.122;11.560;2023-09-30T07:48:08;16.90;99.90
23497;DHT22;11925;48.122;11.560;2023-09-30T07:50:37;16.80;99.90
23497;DHT22;11925;48.122;11.560;2023-09-30T07:53:06;16.80;99.90
23497;DHT22;11925;48.122;11.560;2023-09-30T07:55:34;16.90;99.90
23497;DHT22;11925;48.122;11.560;2023-09-30T07:58:03;16.90;99.90
23497;DHT22;11925;48.122;11.560;2023-09-30T08:00:31;16.90;99.90
23497;DHT22;11925;48.122;11.560;2023-09-30T08:03:01;16.90;99.90
23497;DHT22;11925;48.122;11.560;2023-09-30T08:05:31;16.80;99.90
23497;DHT22;11925;48.122;11.560;2023-09-30T08:07:59;16.90;99.90
23497;DHT22;11925;48.122;11.560;2023-09-30T08:10:29;16.90;99.90
23497;DHT22;11925;48.122;11.560;2023-09-30T08:12:59;16.90;99.90
23497;DHT22;11925;48.122;11.560;2023-09-30T08:15:29;16.90;99.90
23497;DHT22;11925;48.122;11.560;2023-09-30T08:17:58;16.80;99.90
23497;DHT22;11925;48.122;11.560;2023-09-30T08:20:26;16.90;99.90
23497;DHT22;11925;48.122;11.560;2023-09-30T08:22:56;16.90;99.90
23497;DHT22;11925;48.122;11.560;2023-09-30T08:25:25;16.90;99.90
23497;DHT22;11925;48.122;11.560;2023-09-30T08:27:54;16.90;99.90
23497;DHT22;11925;48.122;11.560;2023-09-30T08:30:22;16.90;99.90
23497;DHT22;11925;48.122;11.560;2023-09-30T08:32:51;16.90;99.90
23497;DHT22;11925;48.122;11.560;2023-09-30T08:35:19;16.90;99.90
23497;DHT22;11925;48.122;11.560;2023-09-30T08:37:48;16.90;99.90
23497;DHT22;11925;48.122;11.560;2023-09-30T08:40:21;16.90;99.90
23497;DHT22;11925;48.122;11.560;2023-09-30T08:42:52;16.90;99.90
23497;DHT22;11925;48.122;11.560;2023-09-30T08:45:21;16.90;99.90
23497;DHT22;11925;48.122;11.560;2023-09-30T08:47:50;16.90;99.90
23497;DHT22;11925;48.122;11.560;2023-09-30T08:50:19;16.90;99.90
23497;DHT22;11925;48.122;11.560;2023-09-30T08:52:49;16.90;99.90
23497;DHT22;11925;48.122;11.560;2023-09-30T08:55:18;16.90;99.90
23497;DHT22;11925;48.122;11.560;2023-09-30T08:57:48;17.00;99.90
23497;DHT22;11925;48.122;11.560;2023-09-30T09:00:19;17.00;99.90
23497;DHT22;11925;48.122;11.560;2023-09-30T09:02:50;17.00;99.90
23497;DHT22;11925;48.122;11.560;2023-09-30T09:05:18;16.90;99.90
23497;DHT22;11925;48.122;11.560;2023-09-30T09:07:46;17.00;99.90
23497;DHT22;11925;48.122;11.560;2023-09-30T09:10:17;17.00;99.90
23497;DHT22;11925;48.122;11.560;2023-09-30T09:12:55;17.00;99.90
23497;DHT22;11925;48.122;11.560;2023-09-30T09:15:25;17.00;99.90
23497;DHT22;11925;48.122;11.560;2023-09-30T09:17:54;17.10;99.90
23497;DHT22;11925;48.122;11.560;2023-09-30T09:20:25;17.10;99.90
23497;DHT22;11925;48.122;11.560;2023-09-30T09:22:54;17.00;99.90
23497;DHT22;11925;48.122;11.560;2023-09-30T09:25:25;17.10;99.90
23497;DHT22;11925;48.122;11.560;2023-09-30T09:27:55;17.10;99.90
23497;DHT22;11925;48.122;11.560;2023-09-30T09:30:25;17.00;99.90
23497;DHT22;11925;48.122;11.560;2023-09-30T09:32:56;17.10;99.90
23497;DHT22;11925;48.122;11.560;2023-09-30T09:35:26;17.10;99.90
23497;DHT22;11925;48.122;11.560;2023-09-30T09:37:57;17.00;99.90
23497;DHT22;11925;48.122;11.560;2023-09-30T09:40:27;17.10;99.90
23497;DHT22;11925;48.122;11.560;2023-09-30T09:42:58;17.10;99.90
23497;DHT22;11925;48.122;11.560;2023-09-30T09:45:27;17.10;99.90
23497;DHT22;11925;48.122;11.560;2023-09-30T09:48:00;17.10;99.90
23497;DHT22;11925;48.122;11.560;2023-09-30T09:50:28;17.10;99.90
23497;DHT22;11925;48.122;11.560;2023-09-30T09:52:59;17.10;99.90
23497;DHT22;11925;48.122;11.560;2023-09-30T09:55:29;17.10;99.90
23497;DHT22;11925;48.122;11.560;2023-09-30T09:58:02;17.10;99.90
23497;DHT22;11925;48.122;11.560;2023-09-30T10:00:32;17.10;99.90
23497;DHT22;11925;48.122;11.560;2023-09-30T10:03:03;17.10;99.90
23497;DHT22;11925;48.122;11.560;2023-09-30T10:05:32;17.10;99.90
23497;DHT22;11925;48.122;11.560;2023-09-30T10:08:03;17.10;99.90
23497;DHT22;11925;48.122;11.560;2023-09-30T10:10:36;17.10;99.90
23497;DHT22;11925;48.122;11.560;2023-09-30T10:13:07;17.10;99.90
23497;DHT22;11925;48.122;11.560;2023-09-30T10:15:39;17.10;99.90
23497;DHT22;11925;48.122;11.560;2023-09-30T10:18:11;17.10;99.90
23497;DHT22;11925;48.122;11.560;2023-09-30T10:20:43;17.10;99.90
23497;DHT22;11925;48.122;11.560;2023-09-30T10:23:24;17.10;99.90
23497;DHT22;11925;48.122;11.560;2023-09-30T10:25:54;17.10;99.90
23497;DHT22;11925;48.122;11.560;2023-09-30T10:28:46;17.20;99.90
23497;DHT22;11925;48.122;11.560;2023-09-30T10:31:18;17.10;99.90
23497;DHT22;11925;48.122;11.560;2023-09-30T10:39:57;17.10;99.90
23497;DHT22;11925;48.122;11.560;2023-09-30T10:42:46;17.10;99.90
23497;DHT22;11925;48.122;11.560;2023-09-30T10:45:43;17.20;99.90
23497;DHT22;11925;48.122;11.560;2023-09-30T10:48:33;17.20;99.90
23497;DHT22;11925;48.122;11.560;2023-09-30T10:51:14;17.20;99.90
23497;DHT22;11925;48.122;11.560;2023-09-30T10:53:48;17.20;99.90
23497;DHT22;11925;48.122;11.560;2023-09-30T10:56:20;17.20;99.90
23497;DHT22;11925;48.122;11.560;2023-09-30T10:58:50;17.20;99.90
23497;DHT22;11925;48.122;11.560;2023-09-30T11:01:21;17.20;99.90
23497;DHT22;11925;48.122;11.560;2023-09-30T11:03:50;17.20;99.90
23497;DHT22;11925;48.122;11.560;2023-09-30T11:06:26;17.20;99.90
23497;DHT22;11925;48.122;11.560;2023-09-30T11:08:56;17.20;99.90
23497;DHT22;11925;48.122;11.560;2023-09-30T11:11:34;17.20;99.90
23497;DHT22;11925;48.122;11.560;2023-09-30T11:14:02;17.20;99.90
23497;DHT22;11925;48.122;11.560;2023-09-30T11:19:12;17.20;99.90
23497;DHT22;11925;48.122;11.560;2023-09-30T11:21:43;17.20;99.90
23497;DHT22;11925;48.122;11.560;2023-09-30T11:24:14;17.20;99.90
23497;DHT22;11925;48.122;11.560;2023-09-30T11:26:43;17.20;99.90
23497;DHT22;11925;48.122;11.560;2023-09-30T11:29:13;17.20;99.90
23497;DHT22;11925;48.122;11.560;2023-09-30T11:31:45;17.20;99.90
23497;DHT22;11925;48.122;11.560;2023-09-30T11:34:15;17.20;99.90
23497;DHT22;11925;48.122;11.560;2023-09-30T11:36:48;17.20;99.90
23497;DHT22;11925;48.122;11.560;2023-09-30T11:39:24;17.20;99.90
23497;DHT22;11925;48.122;11.560;2023-09-30T11:41:53;17.20;99.90
23497;DHT22;11925;48.122;11.560;2023-09-30T11:44:22;17.20;99.90
23497;DHT22;11925;48.122;11.560;2023-09-30T11:46:53;17.20;99.90
23497;DHT22;11925;48.122;11.560;2023-09-30T11:49:28;17.20;99.90
23497;DHT22;11925;48.122;11.560;2023-09-30T11:51:58;17.20;99.90
23497;DHT22;11925;48.122;11.560;2023-09-30T11:54:31;17.20;99.90
23497;DHT22;11925;48.122;11.560;2023-09-30T11:57:01;17.20;99.90
23497;DHT22;11925;48.122;11.560;2023-09-30T11:59:30;17.20;99.90
23497;DHT22;11925;48.122;11.560;2023-09-30T12:02:00;17.20;99.90
23497;DHT22;11925;48.122;11.560;2023-09-30T12:04:41;17.20;99.90
23497;DHT22;11925;48.122;11.560;2023-09-30T12:07:10;17.20;99.90
23497;DHT22;11925;48.122;11.560;2023-09-30T12:09:39;17.20;99.90
23497;DHT22;11925;48.122;11.560;2023-09-30T12:12:08;17.20;99.90
23497;DHT22;11925;48.122;11.560;2023-09-30T12:14:39;17.20;99.90
23497;DHT22;11925;48.122;11.560;2023-09-30T12:17:08;17.20;99.90
23497;DHT22;11925;48.122;11.560;2023-09-30T12:19:40;17.20;99.90
23497;DHT22;11925;48.122;11.560;2023-09-30T12:22:10;17.20;99.90
23497;DHT22;11925;48.122;11.560;2023-09-30T12:24:38;17.20;99.90
23497;DHT22;11925;48.122;11.560;2023-09-30T12:27:08;17.30;99.90
23497;DHT22;11925;48.122;11.560;2023-09-30T12:29:36;17.20;99.90
23497;DHT22;11925;48.122;11.560;2023-09-30T12:32:07;17.20;99.90
23497;DHT22;11925;48.122;11.560;2023-09-30T12:34:36;17.20;99.90
23497;DHT22;11925;48.122;11.560;2023-09-30T12:37:05;17.20;99.90
23497;DHT22;11925;48.122;11.560;2023-09-30T12:39:34;17.20;99.90
23497;DHT22;11925;48.122;11.560;2023-09-30T12:42:04;17.20;99.90
23497;DHT22;11925;48.122;11.560;2023-09-30T12:44:36;17.20;99.90
23497;DHT22;11925;48.122;11.560;2023-09-30T12:47:05;17.20;99.90
23497;DHT22;11925;48.122;11.560;2023-09-30T12:49:35;17.30;99.90
23497;DHT22;11925;48.122;11.560;2023-09-30T12:52:04;17.20;99.90
23497;DHT22;11925;48.122;11.560;2023-09-30T12:54:32;17.30;99.90
23497;DHT22;11925;48.122;11.560;2023-09-30T12:57:01;17.30;99.90
23497;DHT22;11925;48.122;11.560;2023-09-30T12:59:29;17.30;99.90
23497;DHT22;11925;48.122;11.560;2023-09-30T13:01:58;17.30;99.90
23497;DHT22;11925;48.122;11.560;2023-09-30T13:04:26;17.20;99.90
23497;DHT22;11925;48.122;11.560;2023-09-30T13:06:56;17.30;99.90
23497;DHT22;11925;48.122;11.560;2023-09-30T13:09:26;17.40;99.90
23497;DHT22;11925;48.122;11.560;2023-09-30T13:11:54;17.30;99.90
23497;DHT22;11925;48.122;11.560;2023-09-30T13:14:23;17.30;99.90
23497;DHT22;11925;48.122;11.560;2023-09-30T13:16:53;17.30;99.90
23497;DHT22;11925;48.122;11.560;2023-09-30T13:19:22;17.30;99.90
23497;DHT22;11925;48.122;11.560;2023-09-30T13:21:50;17.20;99.90
23497;DHT22;11925;48.122;11.560;2023-09-30T13:24:21;17.30;99.90
23497;DHT22;11925;48.122;11.560;2023-09-30T13:26:50;17.30;99.90
23497;DHT22;11925;48.122;11.560;2023-09-30T13:29:19;17.30;99.90
23497;DHT22;11925;48.122;11.560;2023-09-30T13:31:48;17.30;99.90
23497;DHT22;11925;48.122;11.560;2023-09-30T13:34:16;17.30;99.90
23497;DHT22;11925;48.122;11.560;2023-09-30T13:36:45;17.40;99.90
23497;DHT22;11925;48.122;11.560;2023-09-30T13:39:13;17.30;99.90
23497;DHT22;11925;48.122;11.560;2023-09-30T13:41:46;17.30;99.90
23497;DHT22;11925;48.122;11.560;2023-09-30T13:44:15;17.30;99.90
23497;DHT22;11925;48.122;11.560;2023-09-30T13:46:43;17.30;99.90
23497;DHT22;11925;48.122;11.560;2023-09-30T13:49:12;17.30;99.90
23497;DHT22;11925;48.122;11.560;2023-09-30T13:51:41;17.30;99.90
23497;DHT22;11925;48.122;11.560;2023-09-30T13:54:09;17.30;99.90
23497;DHT22;11925;48.122;11.560;2023-09-30T13:56:37;17.30;99.90
23497;DHT22;11925;48.122;11.560;2023-09-30T13:59:07;17.30;99.90
23497;DHT22;11925;48.122;11.560;2023-09-30T14:01:37;17.30;99.90
23497;DHT22;11925;48.122;11.560;2023-09-30T14:04:09;17.30;99.90
23497;DHT22;11925;48.122;11.560;2023-09-30T14:06:37;17.30;99.90
23497;DHT22;11925;48.122;11.560;2023-09-30T14:09:06;17.30;99.90
23497;DHT22;11925;48.122;11.560;2023-09-30T14:11:59;17.30;99.90
23497;DHT22;11925;48.122;11.560;2023-09-30T14:14:30;17.30;99.90
23497;DHT22;11925;48.122;11.560;2023-09-30T14:16:59;17.30;99.90
23497;DHT22;11925;48.122;11.560;2023-09-30T14:19:27;17.30;99.90
23497;DHT22;11925;48.122;11.560;2023-09-30T14:21:56;17.30;99.90
23497;DHT22;11925;48.122;11.560;2023-09-30T14:24:25;17.30;99.90
23497;DHT22;11925;48.122;11.560;2023-09-30T14:26:54;17.30;99.90
23497;DHT22;11925;48.122;11.560;2023-09-30T14:29:22;17.30;99.90
23497;DHT22;11925;48.122;11.560;2023-09-30T14:31:53;17.30;99.90
23497;DHT22;11925;48.122;11.560;2023-09-30T14:34:22;17.30;99.90
23497;DHT22;11925;48.122;11.560;2023-09-30T14:36:50;17.30;99.90
23497;DHT22;11925;48.122;11.560;2023-09-30T14:39:19;17.30;99.90
23497;DHT22;11925;48.122;11.560;2023-09-30T14:41:47;17.30;99.90
23497;DHT22;11925;48.122;11.560;2023-09-30T14:44:16;17.30;99.90
23497;DHT22;11925;48.122;11.560;2023-09-30T14:46:44;17.30;99.90
23497;DHT22;11925;48.122;11.560;2023-09-30T14:49:14;17.30;99.90
23497;DHT22;11925;48.122;11.560;2023-09-30T14:51:43;17.30;99.90
23497;DHT22;11925;48.122;11.560;2023-09-30T14:54:16;17.30;99.90
23497;DHT22;11925;48.122;11.560;2023-09-30T14:56:44;17.30;99.90
23497;DHT22;11925;48.122;11.560;2023-09-30T14:59:13;17.40;99.90
23497;DHT22;11925;48.122;11.560;2023-09-30T15:01:41;17.40;99.90
23497;DHT22;11925;48.122;11.560;2023-09-30T15:04:10;17.40;99.90
23497;DHT22;11925;48.122;11.560;2023-09-30T15:06:40;17.30;99.90
23497;DHT22;11925;48.122;11.560;2023-09-30T15:09:09;17.40;99.90
23497;DHT22;11925;48.122;11.560;2023-09-30T15:11:39;17.30;99.90
23497;DHT22;11925;48.122;11.560;2023-09-30T15:14:08;17.40;99.90
23497;DHT22;11925;48.122;11.560;2023-09-30T15:16:36;17.40;99.90
23497;DHT22;11925;48.122;11.560;2023-09-30T15:19:05;17.40;99.90
23497;DHT22;11925;48.122;11.560;2023-09-30T15:21:33;17.40;99.90
23497;DHT22;11925;48.122;11.560;2023-09-30T15:24:04;17.40;99.90
23497;DHT22;11925;48.122;11.560;2023-09-30T15:26:32;17.30;99.90
23497;DHT22;11925;48.122;11.560;2023-09-30T15:29:02;17.30;99.90
23497;DHT22;11925;48.122;11.560;2023-09-30T15:31:31;17.30;99.90
23497;DHT22;11925;48.122;11.560;2023-09-30T15:33:59;17.40;99.90
23497;DHT22;11925;48.122;11.560;2023-09-30T15:36:28;17.30;99.90
23497;DHT22;11925;48.122;11.560;2023-09-30T15:38:57;17.30;99.90
23497;DHT22;11925;48.122;11.560;2023-09-30T15:41:27;17.30;99.90